sensor_id;sensor_type;location;lat;lon;timestamp;pressure;altitude;pressure_sealevel;temperature;humidity
61010;BME280;46897;55.340;86.082;2023-05-29T01:31:28;100348.47;;;12.36;52.51
61010;BME280;46897;55.340;86.082;2023-05-29T01:33:58;100344.13;;;12.52;53.23
61010;BME280;46897;55.340;86.082;2023-05-29T01:39:35;100346.56;;;12.74;53.74
61010;BME280;46897;55.340;86.082;2023-05-29T01:44:52;100340.00;;;12.82;54.26
61010;BME280;46897;55.340;86.082;2023-05-29T01:47:23;100341.41;;;12.89;54.53
61010;BME280;46897;55.340;86.082;2023-05-29T01:49:53;100339.22;;;12.97;54.72
61010;BME280;46897;55.340;86.082;2023-05-29T01:55:10;100340.03;;;13.15;54.58
61010;BME280;46897;55.340;86.082;2023-05-29T01:57:58;100346.22;;;13.33;54.82
61010;BME280;46897;55.340;86.082;2023-05-29T02:00:27;100325.47;;;13.40;54.86
61010;BME280;46897;55.340;86.082;2023-05-29T02:02:59;100323.44;;;13.61;54.71
61010;BME280;46897;55.340;86.082;2023-05-29T02:05:29;100335.28;;;13.87;54.60
61010;BME280;46897;55.340;86.082;2023-05-29T02:07:59;100340.78;;;14.00;54.48
61010;BME280;46897;55.340;86.082;2023-05-29T02:10:28;100345.84;;;14.20;54.38
61010;BME280;46897;55.340;86.082;2023-05-29T02:15:46;100332.13;;;14.58;54.08
61010;BME280;46897;55.340;86.082;2023-05-29T02:18:17;100325.44;;;14.67;54.01
61010;BME280;46897;55.340;86.082;2023-05-29T02:20:46;100310.03;;;14.72;53.80
61010;BME280;46897;55.340;86.082;2023-05-29T02:23:16;100323.75;;;14.94;53.70
61010;BME280;46897;55.340;86.082;2023-05-29T02:26:02;100314.75;;;15.11;53.68
61010;BME280;46897;55.340;86.082;2023-05-29T02:28:31;100319.91;;;15.29;53.57
61010;BME280;46897;55.340;86.082;2023-05-29T02:31:02;100326.19;;;15.42;53.64
61010;BME280;46897;55.340;86.082;2023-05-29T02:33:32;100317.59;;;15.51;53.47
61010;BME280;46897;55.340;86.082;2023-05-29T02:36:19;100313.56;;;15.59;53.31
61010;BME280;46897;55.340;86.082;2023-05-29T02:38:48;100295.22;;;15.54;53.39
61010;BME280;46897;55.340;86.082;2023-05-29T02:41:18;100310.94;;;15.73;53.38
61010;BME280;46897;55.340;86.082;2023-05-29T02:43:48;100317.47;;;15.82;53.41
61010;BME280;46897;55.340;86.082;2023-05-29T02:49:24;100309.09;;;15.88;53.11
61010;BME280;46897;55.340;86.082;2023-05-29T02:51:53;100309.38;;;15.98;53.34
61010;BME280;46897;55.340;86.082;2023-05-29T02:54:42;100318.03;;;16.01;53.23
61010;BME280;46897;55.340;86.082;2023-05-29T02:57:12;100310.78;;;16.03;53.19
61010;BME280;46897;55.340;86.082;2023-05-29T02:59:58;100308.38;;;15.99;53.11
61010;BME280;46897;55.340;86.082;2023-05-29T03:02:28;100317.91;;;16.03;52.97
61010;BME280;46897;55.340;86.082;2023-05-29T03:04:59;100310.22;;;15.98;53.08
61010;BME280;46897;55.340;86.082;2023-05-29T03:07:28;100314.47;;;16.01;52.88
61010;BME280;46897;55.340;86.082;2023-05-29T03:09:57;100309.56;;;15.95;52.85
61010;BME280;46897;55.340;86.082;2023-05-29T03:12:26;100320.22;;;15.95;52.94
61010;BME280;46897;55.340;86.082;2023-05-29T03:14:56;100313.63;;;16.00;52.81
61010;BME280;46897;55.340;86.082;2023-05-29T03:17:26;100317.41;;;16.10;52.69
61010;BME280;46897;55.340;86.082;2023-05-29T03:19:55;100313.47;;;16.16;52.79
61010;BME280;46897;55.340;86.082;2023-05-29T03:22:26;100313.06;;;16.22;52.70
61010;BME280;46897;55.340;86.082;2023-05-29T03:24:55;100304.25;;;16.35;52.50
61010;BME280;46897;55.340;86.082;2023-05-29T03:27:24;100306.94;;;16.47;52.58
61010;BME280;46897;55.340;86.082;2023-05-29T03:29:53;100302.41;;;16.62;52.40
61010;BME280;46897;55.340;86.082;2023-05-29T03:32:23;100307.44;;;16.80;52.24
61010;BME280;46897;55.340;86.082;2023-05-29T03:34:52;100308.66;;;17.01;52.12
61010;BME280;46897;55.340;86.082;2023-05-29T03:37:22;100307.94;;;17.25;51.99
61010;BME280;46897;55.340;86.082;2023-05-29T03:39:53;100309.38;;;17.55;51.66
61010;BME280;46897;55.340;86.082;2023-05-29T03:42:22;100301.53;;;17.77;51.53
61010;BME280;46897;55.340;86.082;2023-05-29T03:47:38;100304.41;;;18.11;51.18
61010;BME280;46897;55.340;86.082;2023-05-29T03:50:08;100291.34;;;18.31;51.32
61010;BME280;46897;55.340;86.082;2023-05-29T03:55:27;100292.97;;;18.69;50.88
61010;BME280;46897;55.340;86.082;2023-05-29T03:57:56;100282.13;;;18.70;50.63
61010;BME280;46897;55.340;86.082;2023-05-29T04:03:13;100304.22;;;18.85;50.20
61010;BME280;46897;55.340;86.082;2023-05-29T04:05:42;100300.06;;;18.81;50.33
61010;BME280;46897;55.340;86.082;2023-05-29T04:08:11;100302.28;;;18.87;50.23
61010;BME280;46897;55.340;86.082;2023-05-29T04:10:44;100296.22;;;18.96;50.34
61010;BME280;46897;55.340;86.082;2023-05-29T04:13:30;100285.75;;;18.93;50.21
61010;BME280;46897;55.340;86.082;2023-05-29T04:15:59;100296.00;;;19.11;50.36
61010;BME280;46897;55.340;86.082;2023-05-29T04:18:29;100290.16;;;19.17;50.10
61010;BME280;46897;55.340;86.082;2023-05-29T04:20:58;100284.06;;;19.26;50.13
61010;BME280;46897;55.340;86.082;2023-05-29T04:23:27;100265.41;;;19.24;50.00
61010;BME280;46897;55.340;86.082;2023-05-29T04:26:33;100282.81;;;19.64;49.83
61010;BME280;46897;55.340;86.082;2023-05-29T04:31:50;100269.56;;;20.06;49.35
61010;BME280;46897;55.340;86.082;2023-05-29T04:34:19;100275.50;;;20.21;49.01
61010;BME280;46897;55.340;86.082;2023-05-29T04:37:07;100283.66;;;20.52;49.15
61010;BME280;46897;55.340;86.082;2023-05-29T04:39:53;100283.38;;;20.87;48.45
61010;BME280;46897;55.340;86.082;2023-05-29T04:42:24;100243.66;;;21.00;48.13
61010;BME280;46897;55.340;86.082;2023-05-29T04:44:53;100269.56;;;21.63;48.10
61010;BME280;46897;55.340;86.082;2023-05-29T04:47:23;100261.41;;;21.94;47.65
61010;BME280;46897;55.340;86.082;2023-05-29T04:49:52;100252.63;;;22.11;47.27
61010;BME280;46897;55.340;86.082;2023-05-29T04:52:21;100258.63;;;22.25;46.94
61010;BME280;46897;55.340;86.082;2023-05-29T04:54:51;100256.22;;;22.31;46.87
61010;BME280;46897;55.340;86.082;2023-05-29T04:57:20;100250.53;;;22.34;46.67
61010;BME280;46897;55.340;86.082;2023-05-29T04:59:50;100256.78;;;22.45;46.31
61010;BME280;46897;55.340;86.082;2023-05-29T05:02:19;100252.94;;;22.47;45.95
61010;BME280;46897;55.340;86.082;2023-05-29T05:04:49;100241.44;;;22.45;45.91
61010;BME280;46897;55.340;86.082;2023-05-29T05:07:35;100228.06;;;22.63;45.63
61010;BME280;46897;55.340;86.082;2023-05-29T05:10:05;100238.34;;;22.97;45.20
61010;BME280;46897;55.340;86.082;2023-05-29T05:15:41;100226.06;;;23.50;44.39
61010;BME280;46897;55.340;86.082;2023-05-29T05:18:10;100236.31;;;23.74;44.31
61010;BME280;46897;55.340;86.082;2023-05-29T05:21:15;100228.00;;;23.85;43.93
61010;BME280;46897;55.340;86.082;2023-05-29T05:24:01;100231.72;;;23.84;43.89
61010;BME280;46897;55.340;86.082;2023-05-29T05:26:30;100235.16;;;23.77;43.62
61010;BME280;46897;55.340;86.082;2023-05-29T05:28:59;100228.56;;;23.61;43.04
61010;BME280;46897;55.340;86.082;2023-05-29T05:34:18;100232.06;;;23.16;43.60
61010;BME280;46897;55.340;86.082;2023-05-29T05:36:47;100222.56;;;23.02;42.90
61010;BME280;46897;55.340;86.082;2023-05-29T05:39:16;100226.88;;;22.85;41.78
61010;BME280;46897;55.340;86.082;2023-05-29T05:42:21;100213.84;;;22.71;42.30
61010;BME280;46897;55.340;86.082;2023-05-29T05:45:08;100210.59;;;22.67;42.33
61010;BME280;46897;55.340;86.082;2023-05-29T05:47:39;100208.63;;;22.60;41.86
61010;BME280;46897;55.340;86.082;2023-05-29T05:50:27;100205.13;;;22.40;42.10
61010;BME280;46897;55.340;86.082;2023-05-29T05:53:13;100207.09;;;22.18;42.59
61010;BME280;46897;55.340;86.082;2023-05-29T05:55:43;100211.22;;;22.12;42.75
61010;BME280;46897;55.340;86.082;2023-05-29T06:01:00;100212.91;;;22.13;42.55
61010;BME280;46897;55.340;86.082;2023-05-29T06:03:31;100209.66;;;22.19;42.80
61010;BME280;46897;55.340;86.082;2023-05-29T06:06:01;100196.91;;;22.31;43.05
61010;BME280;46897;55.340;86.082;2023-05-29T06:08:30;100194.63;;;22.27;42.85
61010;BME280;46897;55.340;86.082;2023-05-29T06:10:59;100201.59;;;22.29;42.75
61010;BME280;46897;55.340;86.082;2023-05-29T06:13:28;100200.72;;;22.29;42.62
61010;BME280;46897;55.340;86.082;2023-05-29T06:15:58;100208.38;;;22.24;42.50
61010;BME280;46897;55.340;86.082;2023-05-29T06:18:27;100197.75;;;22.12;42.32
61010;BME280;46897;55.340;86.082;2023-05-29T06:20:58;100198.16;;;22.17;42.60
61010;BME280;46897;55.340;86.082;2023-05-29T06:23:28;100202.41;;;22.40;43.00
61010;BME280;46897;55.340;86.082;2023-05-29T06:25:57;100202.59;;;22.85;42.56
61010;BME280;46897;55.340;86.082;2023-05-29T06:28:27;100194.22;;;23.26;41.96
61010;BME280;46897;55.340;86.082;2023-05-29T06:30:56;100210.56;;;23.52;40.74
61010;BME280;46897;55.340;86.082;2023-05-29T06:33:25;100205.47;;;23.49;40.68
61010;BME280;46897;55.340;86.082;2023-05-29T06:38:47;100204.66;;;23.39;40.69
61010;BME280;46897;55.340;86.082;2023-05-29T06:41:17;100198.50;;;23.19;41.02
61010;BME280;46897;55.340;86.082;2023-05-29T06:43:49;100216.31;;;23.11;41.15
61010;BME280;46897;55.340;86.082;2023-05-29T06:46:19;100203.41;;;22.95;41.01
61010;BME280;46897;55.340;86.082;2023-05-29T06:48:48;100210.03;;;22.64;41.20
61010;BME280;46897;55.340;86.082;2023-05-29T06:51:17;100209.38;;;22.32;41.25
61010;BME280;46897;55.340;86.082;2023-05-29T06:53:49;100174.34;;;21.74;41.07
61010;BME280;46897;55.340;86.082;2023-05-29T06:56:20;100216.69;;;21.62;41.16
61010;BME280;46897;55.340;86.082;2023-05-29T06:58:50;100211.59;;;21.28;41.46
61010;BME280;46897;55.340;86.082;2023-05-29T07:01:19;100209.66;;;20.99;41.76
61010;BME280;46897;55.340;86.082;2023-05-29T07:04:25;100208.19;;;20.65;42.08
61010;BME280;46897;55.340;86.082;2023-05-29T07:06:54;100207.63;;;20.40;42.15
61010;BME280;46897;55.340;86.082;2023-05-29T07:09:25;100204.31;;;20.15;42.35
61010;BME280;46897;55.340;86.082;2023-05-29T07:12:12;100201.72;;;19.93;42.72
61010;BME280;46897;55.340;86.082;2023-05-29T07:14:41;100227.97;;;19.89;42.84
61010;BME280;46897;55.340;86.082;2023-05-29T07:17:10;100222.50;;;19.68;42.81
61010;BME280;46897;55.340;86.082;2023-05-29T07:22:26;100258.69;;;19.30;43.48
61010;BME280;46897;55.340;86.082;2023-05-29T07:24:57;100262.81;;;19.00;43.86
61010;BME280;46897;55.340;86.082;2023-05-29T07:27:27;100265.41;;;18.66;44.30
61010;BME280;46897;55.340;86.082;2023-05-29T07:32:44;100290.28;;;17.85;46.48
61010;BME280;46897;55.340;86.082;2023-05-29T07:35:13;100286.88;;;17.07;46.88
61010;BME280;46897;55.340;86.082;2023-05-29T07:37:42;100287.25;;;16.36;47.47
61010;BME280;46897;55.340;86.082;2023-05-29T07:40:30;100305.47;;;15.89;48.09
61010;BME280;46897;55.340;86.082;2023-05-29T07:43:16;100321.09;;;15.66;50.92
61010;BME280;46897;55.340;86.082;2023-05-29T07:45:46;100297.81;;;15.27;51.37
61010;BME280;46897;55.340;86.082;2023-05-29T07:48:15;100327.31;;;15.24;51.37
61010;BME280;46897;55.340;86.082;2023-05-29T07:50:45;100309.03;;;15.18;52.02
61010;BME280;46897;55.340;86.082;2023-05-29T07:53:33;100304.25;;;14.94;52.39
61010;BME280;46897;55.340;86.082;2023-05-29T07:56:04;100298.09;;;14.63;53.92
61010;BME280;46897;55.340;86.082;2023-05-29T07:58:33;100289.28;;;14.16;55.64
61010;BME280;46897;55.340;86.082;2023-05-29T08:01:02;100279.28;;;13.74;55.51
61010;BME280;46897;55.340;86.082;2023-05-29T08:06:20;100271.66;;;13.68;55.20
61010;BME280;46897;55.340;86.082;2023-05-29T08:08:49;100280.34;;;14.02;56.44
61010;BME280;46897;55.340;86.082;2023-05-29T08:11:21;100280.31;;;14.33;57.08
61010;BME280;46897;55.340;86.082;2023-05-29T08:13:50;100233.25;;;14.48;56.40
61010;BME280;46897;55.340;86.082;2023-05-29T08:16:37;100285.06;;;15.32;56.51
61010;BME280;46897;55.340;86.082;2023-05-29T08:19:06;100266.84;;;15.95;56.17
61010;BME280;46897;55.340;86.082;2023-05-29T08:21:35;100288.22;;;16.75;55.73
61010;BME280;46897;55.340;86.082;2023-05-29T08:24:05;100269.59;;;17.50;54.52
61010;BME280;46897;55.340;86.082;2023-05-29T08:26:36;100271.19;;;18.14;53.89
61010;BME280;46897;55.340;86.082;2023-05-29T08:29:22;100266.25;;;18.67;53.36
61010;BME280;46897;55.340;86.082;2023-05-29T08:34:39;100256.25;;;19.27;51.04
61010;BME280;46897;55.340;86.082;2023-05-29T08:39:56;100265.00;;;20.18;50.39
61010;BME280;46897;55.340;86.082;2023-05-29T08:42:29;100266.56;;;20.74;49.05
61010;BME280;46897;55.340;86.082;2023-05-29T08:45:03;100269.97;;;21.28;48.21
61010;BME280;46897;55.340;86.082;2023-05-29T08:47:33;100264.00;;;22.25;47.46
61010;BME280;46897;55.340;86.082;2023-05-29T08:50:03;100256.25;;;23.91;45.29
61010;BME280;46897;55.340;86.082;2023-05-29T08:55:38;100255.00;;;27.74;42.41
61010;BME280;46897;55.340;86.082;2023-05-29T08:58:09;100260.19;;;29.73;40.47
61010;BME280;46897;55.340;86.082;2023-05-29T09:00:40;100258.34;;;31.51;39.85
61010;BME280;46897;55.340;86.082;2023-05-29T09:03:09;100251.00;;;32.07;38.94
61010;BME280;46897;55.340;86.082;2023-05-29T09:05:39;100257.78;;;32.51;37.13
61010;BME280;46897;55.340;86.082;2023-05-29T09:08:21;100266.84;;;32.98;35.80
61010;BME280;46897;55.340;86.082;2023-05-29T09:10:56;100253.97;;;34.09;35.93
61010;BME280;46897;55.340;86.082;2023-05-29T09:13:27;100264.13;;;35.16;35.21
61010;BME280;46897;55.340;86.082;2023-05-29T09:16:16;100263.84;;;35.24;35.97
61010;BME280;46897;55.340;86.082;2023-05-29T09:18:45;100263.53;;;34.89;34.40
61010;BME280;46897;55.340;86.082;2023-05-29T09:21:25;100271.94;;;33.73;34.30
61010;BME280;46897;55.340;86.082;2023-05-29T09:27:08;100291.28;;;32.40;36.13
61010;BME280;46897;55.340;86.082;2023-05-29T09:29:41;100275.69;;;33.00;35.47
61010;BME280;46897;55.340;86.082;2023-05-29T09:32:12;100269.75;;;33.82;35.20
61010;BME280;46897;55.340;86.082;2023-05-29T09:34:42;100276.00;;;33.96;34.12
61010;BME280;46897;55.340;86.082;2023-05-29T09:37:29;100264.81;;;33.45;32.83
61010;BME280;46897;55.340;86.082;2023-05-29T09:39:58;100247.69;;;32.71;32.87
61010;BME280;46897;55.340;86.082;2023-05-29T09:42:46;100235.97;;;31.89;33.22
61010;BME280;46897;55.340;86.082;2023-05-29T09:48:10;100203.44;;;29.84;33.92
61010;BME280;46897;55.340;86.082;2023-05-29T09:50:41;100197.78;;;29.49;34.27
61010;BME280;46897;55.340;86.082;2023-05-29T09:53:28;100255.22;;;29.47;34.24
61010;BME280;46897;55.340;86.082;2023-05-29T09:56:17;100257.16;;;29.09;34.52
61010;BME280;46897;55.340;86.082;2023-05-29T09:58:47;100200.38;;;28.15;33.83
61010;BME280;46897;55.340;86.082;2023-05-29T10:01:19;100241.06;;;27.77;34.85
61010;BME280;46897;55.340;86.082;2023-05-29T10:03:49;100242.81;;;27.30;35.50
61010;BME280;46897;55.340;86.082;2023-05-29T10:09:10;100200.34;;;26.73;36.05
61010;BME280;46897;55.340;86.082;2023-05-29T10:11:42;100195.22;;;26.86;36.07
61010;BME280;46897;55.340;86.082;2023-05-29T10:14:18;100257.69;;;27.51;35.69
61010;BME280;46897;55.340;86.082;2023-05-29T10:16:50;100268.63;;;28.74;35.58
61010;BME280;46897;55.340;86.082;2023-05-29T10:19:25;100263.56;;;30.12;34.38
61010;BME280;46897;55.340;86.082;2023-05-29T10:22:01;100267.22;;;30.41;33.73
61010;BME280;46897;55.340;86.082;2023-05-29T10:24:31;100282.25;;;29.93;34.38
61010;BME280;46897;55.340;86.082;2023-05-29T10:27:01;100275.13;;;29.63;34.89
61010;BME280;46897;55.340;86.082;2023-05-29T10:29:50;100219.22;;;28.92;35.02
61010;BME280;46897;55.340;86.082;2023-05-29T10:32:32;100265.28;;;28.64;34.82
61010;BME280;46897;55.340;86.082;2023-05-29T10:35:06;100259.97;;;28.24;35.51
61010;BME280;46897;55.340;86.082;2023-05-29T10:37:57;100256.03;;;27.73;34.87
61010;BME280;46897;55.340;86.082;2023-05-29T10:40:30;100248.75;;;27.34;35.95
61010;BME280;46897;55.340;86.082;2023-05-29T10:42:59;100260.19;;;27.04;36.34
61010;BME280;46897;55.340;86.082;2023-05-29T10:45:50;100258.38;;;26.72;36.66
61010;BME280;46897;55.340;86.082;2023-05-29T10:51:28;100261.03;;;26.15;36.87
61010;BME280;46897;55.340;86.082;2023-05-29T10:56:52;100245.81;;;25.63;37.65
61010;BME280;46897;55.340;86.082;2023-05-29T10:59:22;100252.88;;;25.47;37.99
61010;BME280;46897;55.340;86.082;2023-05-29T11:04:43;100263.38;;;25.16;38.67
61010;BME280;46897;55.340;86.082;2023-05-29T11:07:32;100261.31;;;25.10;38.85
61010;BME280;46897;55.340;86.082;2023-05-29T11:12:59;100263.72;;;25.13;38.81
61010;BME280;46897;55.340;86.082;2023-05-29T11:15:36;100264.41;;;25.15;38.89
61010;BME280;46897;55.340;86.082;2023-05-29T11:18:08;100257.81;;;25.18;38.96
61010;BME280;46897;55.340;86.082;2023-05-29T11:20:43;100222.34;;;25.03;38.78
61010;BME280;46897;55.340;86.082;2023-05-29T11:23:24;100259.22;;;25.30;38.80
61010;BME280;46897;55.340;86.082;2023-05-29T11:28:47;100229.97;;;25.34;38.97
61010;BME280;46897;55.340;86.082;2023-05-29T11:31:20;100267.84;;;25.60;38.94
61010;BME280;46897;55.340;86.082;2023-05-29T11:33:51;100256.88;;;25.69;38.94
61010;BME280;46897;55.340;86.082;2023-05-29T11:36:26;100260.56;;;25.68;38.78
61010;BME280;46897;55.340;86.082;2023-05-29T11:38:56;100251.38;;;25.53;38.90
61010;BME280;46897;55.340;86.082;2023-05-29T11:41:26;100259.16;;;25.48;39.03
61010;BME280;46897;55.340;86.082;2023-05-29T11:43:59;100254.13;;;25.61;38.39
61010;BME280;46897;55.340;86.082;2023-05-29T11:46:29;100214.88;;;25.90;37.49
61010;BME280;46897;55.340;86.082;2023-05-29T11:49:00;100256.31;;;26.33;37.01
61010;BME280;46897;55.340;86.082;2023-05-29T11:51:31;100262.25;;;26.04;37.43
61010;BME280;46897;55.340;86.082;2023-05-29T11:54:00;100267.19;;;25.74;37.68
61010;BME280;46897;55.340;86.082;2023-05-29T11:56:30;100263.66;;;25.31;37.84
61010;BME280;46897;55.340;86.082;2023-05-29T11:59:17;100275.22;;;24.63;38.08
61010;BME280;46897;55.340;86.082;2023-05-29T12:01:48;100274.13;;;24.20;38.54
61010;BME280;46897;55.340;86.082;2023-05-29T12:04:17;100276.41;;;23.97;38.84
61010;BME280;46897;55.340;86.082;2023-05-29T12:07:18;100283.97;;;23.93;39.01
61010;BME280;46897;55.340;86.082;2023-05-29T12:10:10;100272.34;;;24.28;38.70
61010;BME280;46897;55.340;86.082;2023-05-29T12:12:40;100280.56;;;25.07;39.08
61010;BME280;46897;55.340;86.082;2023-05-29T12:15:11;100294.25;;;26.00;37.86
61010;BME280;46897;55.340;86.082;2023-05-29T12:17:41;100293.31;;;26.67;37.47
61010;BME280;46897;55.340;86.082;2023-05-29T12:20:11;100291.72;;;27.22;36.72
61010;BME280;46897;55.340;86.082;2023-05-29T12:22:44;100286.03;;;27.88;36.15
61010;BME280;46897;55.340;86.082;2023-05-29T12:25:15;100287.06;;;28.64;35.67
61010;BME280;46897;55.340;86.082;2023-05-29T12:28:02;100278.38;;;29.21;35.15
61010;BME280;46897;55.340;86.082;2023-05-29T12:30:37;100277.34;;;29.23;35.00
61010;BME280;46897;55.340;86.082;2023-05-29T12:33:08;100284.94;;;29.27;35.54
61010;BME280;46897;55.340;86.082;2023-05-29T12:39:04;100272.25;;;30.87;33.63
61010;BME280;46897;55.340;86.082;2023-05-29T12:41:36;100280.31;;;31.71;33.47
61010;BME280;46897;55.340;86.082;2023-05-29T12:44:06;100256.88;;;32.04;32.94
61010;BME280;46897;55.340;86.082;2023-05-29T12:46:37;100270.00;;;32.42;32.45
61010;BME280;46897;55.340;86.082;2023-05-29T12:49:24;100274.84;;;32.53;31.81
61010;BME280;46897;55.340;86.082;2023-05-29T12:52:04;100276.13;;;32.64;32.25
61010;BME280;46897;55.340;86.082;2023-05-29T12:54:52;100265.31;;;32.09;32.42
61010;BME280;46897;55.340;86.082;2023-05-29T12:57:21;100267.84;;;30.64;33.25
61010;BME280;46897;55.340;86.082;2023-05-29T12:59:51;100270.13;;;29.07;34.22
61010;BME280;46897;55.340;86.082;2023-05-29T13:05:26;100282.25;;;26.36;35.72
61010;BME280;46897;55.340;86.082;2023-05-29T13:07:55;100295.06;;;25.50;36.53
61010;BME280;46897;55.340;86.082;2023-05-29T13:10:26;100276.22;;;24.62;37.20
61010;BME280;46897;55.340;86.082;2023-05-29T13:12:56;100288.19;;;24.05;37.56
61010;BME280;46897;55.340;86.082;2023-05-29T13:15:26;100248.75;;;23.29;38.13
61010;BME280;46897;55.340;86.082;2023-05-29T13:17:56;100292.59;;;23.13;38.45
61010;BME280;46897;55.340;86.082;2023-05-29T13:20:25;100287.81;;;22.78;38.80
61010;BME280;46897;55.340;86.082;2023-05-29T13:22:55;100286.13;;;22.48;39.14
61010;BME280;46897;55.340;86.082;2023-05-29T13:25:25;100281.28;;;22.22;39.44
61010;BME280;46897;55.340;86.082;2023-05-29T13:27:55;100291.47;;;21.99;39.73
61010;BME280;46897;55.340;86.082;2023-05-29T13:30:24;100279.94;;;21.68;39.91
61010;BME280;46897;55.340;86.082;2023-05-29T13:32:54;100288.81;;;21.49;40.11
61010;BME280;46897;55.340;86.082;2023-05-29T13:35:23;100241.81;;;21.01;40.59
61010;BME280;46897;55.340;86.082;2023-05-29T13:37:52;100280.47;;;21.00;40.55
61010;BME280;46897;55.340;86.082;2023-05-29T13:40:41;100289.00;;;20.84;41.13
61010;BME280;46897;55.340;86.082;2023-05-29T13:43:10;100281.22;;;20.60;40.98
61010;BME280;46897;55.340;86.082;2023-05-29T13:45:40;100280.69;;;20.34;41.39
61010;BME280;46897;55.340;86.082;2023-05-29T13:48:26;100296.38;;;20.17;41.21
61010;BME280;46897;55.340;86.082;2023-05-29T13:51:12;100292.06;;;19.94;41.63
61010;BME280;46897;55.340;86.082;2023-05-29T13:53:59;100261.47;;;19.51;41.84
61010;BME280;46897;55.340;86.082;2023-05-29T13:56:30;100299.19;;;19.50;41.88
61010;BME280;46897;55.340;86.082;2023-05-29T13:58:59;100296.25;;;19.30;42.56
61010;BME280;46897;55.340;86.082;2023-05-29T14:04:20;100287.56;;;18.81;42.87
61010;BME280;46897;55.340;86.082;2023-05-29T14:06:50;100291.25;;;18.67;43.21
61010;BME280;46897;55.340;86.082;2023-05-29T14:09:19;100257.00;;;18.24;43.35
61010;BME280;46897;55.340;86.082;2023-05-29T14:11:57;100258.72;;;18.01;43.71
61010;BME280;46897;55.340;86.082;2023-05-29T14:14:27;100297.59;;;18.07;44.14
61010;BME280;46897;55.340;86.082;2023-05-29T14:16:56;100298.94;;;17.88;44.36
61010;BME280;46897;55.340;86.082;2023-05-29T14:19:28;100310.50;;;17.76;44.91
61010;BME280;46897;55.340;86.082;2023-05-29T14:22:00;100313.56;;;17.59;45.17
61010;BME280;46897;55.340;86.082;2023-05-29T14:24:30;100305.34;;;17.36;45.29
61010;BME280;46897;55.340;86.082;2023-05-29T14:27:00;100311.75;;;17.21;45.74
61010;BME280;46897;55.340;86.082;2023-05-29T14:32:36;100310.91;;;16.82;46.20
61010;BME280;46897;55.340;86.082;2023-05-29T14:35:06;100296.50;;;16.57;46.46
61010;BME280;46897;55.340;86.082;2023-05-29T14:40:42;100311.22;;;16.37;46.97
61010;BME280;46897;55.340;86.082;2023-05-29T14:43:22;100312.97;;;16.24;47.05
61010;BME280;46897;55.340;86.082;2023-05-29T14:45:51;100221.59;;;15.51;47.21
61010;BME280;46897;55.340;86.082;2023-05-29T14:48:23;100315.38;;;16.01;47.59
61010;BME280;46897;55.340;86.082;2023-05-29T14:51:00;100313.38;;;15.90;47.76
61010;BME280;46897;55.340;86.082;2023-05-29T14:53:32;100326.63;;;15.92;48.10
61010;BME280;46897;55.340;86.082;2023-05-29T14:56:20;100326.16;;;15.85;48.27
61010;BME280;46897;55.340;86.082;2023-05-29T14:58:50;100321.31;;;15.78;48.18
61010;BME280;46897;55.340;86.082;2023-05-29T15:01:20;100327.41;;;15.80;48.35
61010;BME280;46897;55.340;86.082;2023-05-29T15:03:49;100331.13;;;15.77;48.54
61010;BME280;46897;55.340;86.082;2023-05-29T15:06:19;100323.59;;;15.69;49.06
61010;BME280;46897;55.340;86.082;2023-05-29T15:08:50;100328.81;;;15.71;49.38
61010;BME280;46897;55.340;86.082;2023-05-29T15:11:20;100339.69;;;15.68;49.53
61010;BME280;46897;55.340;86.082;2023-05-29T15:13:55;100346.66;;;15.70;49.87
61010;BME280;46897;55.340;86.082;2023-05-29T15:16:24;100345.91;;;15.68;49.79
61010;BME280;46897;55.340;86.082;2023-05-29T15:18:54;100350.88;;;15.75;49.75
61010;BME280;46897;55.340;86.082;2023-05-29T15:21:23;100356.00;;;15.78;49.63
61010;BME280;46897;55.340;86.082;2023-05-29T15:23:54;100358.56;;;15.79;49.81
61010;BME280;46897;55.340;86.082;2023-05-29T15:26:24;100349.81;;;15.77;49.69
61010;BME280;46897;55.340;86.082;2023-05-29T15:28:55;100355.31;;;15.74;49.91
61010;BME280;46897;55.340;86.082;2023-05-29T15:31:43;100346.00;;;15.67;50.01
61010;BME280;46897;55.340;86.082;2023-05-29T15:34:12;100348.00;;;15.63;49.60
61010;BME280;46897;55.340;86.082;2023-05-29T15:36:58;100350.16;;;15.57;49.61
61010;BME280;46897;55.340;86.082;2023-05-29T15:39:27;100348.56;;;15.54;49.76
61010;BME280;46897;55.340;86.082;2023-05-29T15:41:57;100338.19;;;15.49;49.80
61010;BME280;46897;55.340;86.082;2023-05-29T15:44:27;100342.94;;;15.44;50.09
61010;BME280;46897;55.340;86.082;2023-05-29T15:46:56;100321.88;;;15.25;50.33
61010;BME280;46897;55.340;86.082;2023-05-29T15:49:26;100330.19;;;15.21;50.73
61010;BME280;46897;55.340;86.082;2023-05-29T15:51:55;100336.38;;;15.21;50.95
61010;BME280;46897;55.340;86.082;2023-05-29T15:54:24;100342.06;;;15.15;51.27
61010;BME280;46897;55.340;86.082;2023-05-29T15:56:53;100346.72;;;15.11;51.49
61010;BME280;46897;55.340;86.082;2023-05-29T15:59:23;100359.31;;;15.09;52.02
61010;BME280;46897;55.340;86.082;2023-05-29T16:01:53;100338.72;;;14.97;52.22
61010;BME280;46897;55.340;86.082;2023-05-29T16:04:23;100349.00;;;15.03;52.34
61010;BME280;46897;55.340;86.082;2023-05-29T16:06:52;100343.47;;;14.92;52.77
61010;BME280;46897;55.340;86.082;2023-05-29T16:09:22;100330.78;;;14.81;52.62
61010;BME280;46897;55.340;86.082;2023-05-29T16:12:09;100342.56;;;14.77;53.05
61010;BME280;46897;55.340;86.082;2023-05-29T16:14:40;100326.94;;;14.57;53.29